METAR Data
IDs: Format: Raw Decoded Include TAF

Data at: 0849 UTC 18 Nov 2018

PAGH 180756Z AUTO 09017KT 10SM CLR M06/M14 A2961 RMK AO2 SLP035 T10611139 FZRANO
PAGH 180656Z AUTO 09017KT 10SM CLR M06/M14 A2962 RMK AO2 SLP038 T10561139 FZRANO
PAGH 180556Z AUTO 09016G24KT 10SM CLR M06/M14 A2963 RMK AO2 SLP042 T10561139 11050 21056 58007 FZRANO
PAGH 180456Z AUTO 09016KT 10SM CLR M06/M14 A2966 RMK AO2 SLP050 T10561139 FZRANO
PAGH 180356Z AUTO 10017KT 10SM CLR M06/M13 A2966 RMK AO2 SLP050 T10561133 FZRANO
PAGH 180256Z AUTO 09015G21KT 10SM CLR M05/M13 A2965 RMK AO2 SLP049 T10501128 56007 FZRANO
PAGH 180156Z AUTO 10013G20KT 10SM CLR M05/M13 A2966 RMK AO2 SLP050 T10501133 FZRANO
PAGH 180056Z AUTO 09017KT 10SM CLR M06/M13 A2966 RMK AO2 SLP051 T10561133 FZRANO
PAGH 172356Z AUTO 10016KT 10SM CLR M05/M13 A2967 RMK AO2 SLP056 T10501133 11050 21056 58010 FZRANO
PAGH 172256Z AUTO 09016KT 10SM CLR M05/M13 A2969 RMK AO2 SLP061 T10501133 FZRANO
PAGH 172156Z AUTO 10016G23KT 9SM CLR M06/M13 A2970 RMK AO2 SLP064 T10561133 FZRANO
PAGH 172056Z AUTO 09017G26KT 10SM FEW110 M06/M13 A2970 RMK AO2 PK WND 09028/2034 SLP066 T10561133 58006 FZRANO
PAGH 171956Z AUTO 10017G23KT 10SM FEW048 M06/M13 A2971 RMK AO2 SLP070 T10561128 FZRANO
PAGH 171856Z AUTO 09019G25KT 10SM OVC050 M05/M13 A2972 RMK AO2 SLP072 T10501128 FZRANO
PAGH 171756Z AUTO 10018G24KT 10SM OVC050 M05/M13 A2972 RMK AO2 SLP073 T10501128 11050 21061 56012 FZRANO
PAGH 171656Z AUTO 10018KT 10SM FEW050 M06/M13 A2973 RMK AO2 PK WND 10026/1612 SLP074 T10561128 FZRANO
PAGH 171556Z AUTO 10019G24KT 10SM OVC050 M06/M13 A2974 RMK AO2 PK WND 09026/1516 SLP080 T10561128 FZRANO
PAGH 171456Z AUTO 09018G23KT 10SM OVC050 M06/M13 A2976 RMK AO2 PK WND 10026/1415 SLP084 T10561128 58016 FZRANO
PAGH 171356Z AUTO 10020G25KT 10SM OVC055 M06/M13 A2977 RMK AO2 PK WND 11027/1332 SLP089 T10561128 FZRANO
PAGH 171256Z AUTO 09016G24KT 10SM BKN050 M06/M13 A2979 RMK AO2 PK WND 10027/1219 SLP096 T10611133 FZRANO
PAGH 171156Z AUTO 09018G27KT 10SM BKN060 BKN070 M06/M13 A2980 RMK AO2 PK WND 09027/1150 SLP100 60000 T10611128 11061 21072 56019 FZRANO
PAGH 171056Z AUTO 10019G25KT 10SM OVC050 M06/M13 A2982 RMK AO2 PK WND 10026/1016 SLP105 T10611128 FZRANO
PAGH 170956Z AUTO 10019G25KT 10SM OVC060 M07/M13 A2984 RMK AO2 PK WND 09027/0916 SNE0857 SLP111 T10671128 FZRANO
PAGH 170856Z AUTO 10015G26KT 9SM -SN SCT045 OVC060 M07/M12 A2986 RMK AO2 PK WND 10027/0815 SNB19 SLP118 P0000 60000 T10671117 410611117 56017 FZRANO
PAGH 170756Z AUTO 10020G26KT 10SM BKN065 M07/M11 A2986 RMK AO2 PK WND 10026/0752 SNB19E39 SLP121 P0000 T10671111 FZRANO
PAGH 170656Z AUTO 10020G26KT 10SM SCT050 M07/M12 A2989 RMK AO2 PK WND 09026/0649 SLP129 T10671117 FZRANO
PAGH 170556Z AUTO 10015G25KT 10SM BKN065 M07/M12 A2991 RMK AO2 PK WND 10027/0505 SLP136 60000 T10721122 11067 21078 58012 FZRANO
PAGH 170456Z AUTO 10019G25KT 10SM BKN055 M07/M12 A2991 RMK AO2 PK WND 08031/0429 SNB14E49 SLP138 P0000 T10671122 FZRANO
PAGH 170356Z AUTO 10018G23KT 10SM FEW060 M07/M14 A2994 RMK AO2 PK WND 10029/0303 SLP146 T10671144 FZRANO
PAGH 170256Z AUTO 10020G28KT 10SM CLR M07/M15 A2994 RMK AO2 PK WND 09028/0251 SLP148 T10721150 58019 FZRANO
PAGH 170156Z AUTO 10017G23KT 10SM CLR M07/M16 A2996 RMK AO2 SLP155 T10721156 FZRANO
PAGH 170056Z AUTO 10015KT 10SM CLR M07/M16 A2999 RMK AO2 PK WND 09027/0039 SLP164 T10721156 FZRANO
PAGH 162356Z AUTO 10015G24KT 10SM CLR M07/M16 A3000 RMK AO2 PK WND 10029/2310 SLP167 T10721161 11072 21089 56015 FZRANO
PAGH 162256Z AUTO 10018G24KT 10SM CLR M08/M17 A3002 RMK AO2 PK WND 10028/2216 SLP174 T10781167 FZRANO
PAGH 162156Z AUTO 10018G26KT 10SM CLR M08/M17 A3002 RMK AO2 PK WND 09029/2113 SLP173 T10781167 FZRANO
PAGH 162056Z AUTO 10021G30KT 10SM CLR M08/M17 A3004 RMK AO2 PK WND 10030/2053 SLP181 T10831172 56015 FZRANO